Time;durP1;ratioP1;P1;durP2;ratioP2;P2;SDS_P1;SDS_P2;PMS_P1;PMS_P2;Temp;Humidity;BMP_temperature;BMP_pressure;BME280_temperature;BME280_humidity;BME280_pressure;Samples;Min_cycle;Max_cycle;Signal;HPM_P1;HPM_P2
2021/06/11 00:00:13;;;;;;;13.90;12.50;;;;;;;19.30;75.38;99600.16;5137047;27;20648;-75
2021/06/11 00:02:39;;;;;;;13.80;12.60;;;;;;;19.56;74.02;99599.56;5137123;27;20480;-75
2021/06/11 00:05:07;;;;;;;13.20;12.00;;;;;;;19.77;72.92;99604.88;5136082;27;20318;-75
2021/06/11 00:07:34;;;;;;;14.50;13.20;;;;;;;19.61;73.42;99602.72;5137129;27;20444;-75
2021/06/11 00:10:00;;;;;;;14.02;12.82;;;;;;;19.37;74.71;99597.72;5136992;27;20475;-75
2021/06/11 00:12:26;;;;;;;14.60;13.30;;;;;;;19.22;75.50;99604.63;5136867;27;20213;-75
2021/06/11 00:14:52;;;;;;;14.20;13.00;;;;;;;19.33;75.08;99608.09;5136540;27;20190;-75
2021/06/11 00:17:20;;;;;;;14.55;13.18;;;;;;;19.12;75.95;99610.09;5136391;27;20590;-75
2021/06/11 00:19:46;;;;;;;14.40;13.00;;;;;;;19.19;75.51;99613.97;5137090;27;20616;-75
2021/06/11 00:22:12;;;;;;;14.30;13.10;;;;;;;19.30;75.17;99618.41;5136673;27;20233;-76
2021/06/11 00:24:38;;;;;;;14.93;13.48;;;;;;;19.38;74.93;99613.97;5137037;27;20221;-76
2021/06/11 00:27:05;;;;;;;13.75;12.55;;;;;;;19.45;74.07;99611.50;5136433;27;20198;-74
2021/06/11 00:29:31;;;;;;;14.77;13.40;;;;;;;19.70;72.89;99615.53;5135392;27;20309;-75
2021/06/11 00:31:57;;;;;;;13.82;12.70;;;;;;;19.51;73.53;99610.91;5136514;27;20472;-75
2021/06/11 00:34:25;;;;;;;14.25;13.07;;;;;;;19.04;75.96;99620.84;5135987;27;20187;-75
2021/06/11 00:36:51;;;;;;;14.40;13.00;;;;;;;18.95;76.49;99612.53;5135933;27;20209;-75
2021/06/11 00:39:17;;;;;;;14.70;13.40;;;;;;;18.94;76.93;99616.25;5135951;27;20491;-75
2021/06/11 00:41:43;;;;;;;14.77;13.43;;;;;;;19.13;76.16;99618.13;5136605;27;20234;-74
2021/06/11 00:44:09;;;;;;;15.17;13.67;;;;;;;19.28;75.19;99618.56;5136142;27;20536;-74
2021/06/11 00:46:35;;;;;;;15.15;13.75;;;;;;;18.81;77.14;99625.72;5135838;27;20524;-74
2021/06/11 00:49:01;;;;;;;15.23;13.93;;;;;;;18.79;77.42;99623.16;5136231;27;20226;-75
2021/06/11 00:51:29;;;;;;;14.75;13.55;;;;;;;18.82;77.37;99611.09;5136012;27;20270;-73
2021/06/11 00:53:56;;;;;;;14.57;13.27;;;;;;;18.75;77.46;99622.53;5135609;27;20190;-74
2021/06/11 00:56:22;;;;;;;15.90;14.60;;;;;;;18.86;76.98;99627.03;5135533;27;20233;-74
2021/06/11 00:58:48;;;;;;;15.30;13.00;;;;;;;18.95;76.37;99618.00;5135590;27;20239;-75
2021/06/11 01:01:15;;;;;;;13.93;12.82;;;;;;;18.83;77.03;99620.97;5135987;27;20187;-75
2021/06/11 01:03:41;;;;;;;15.37;13.90;;;;;;;18.63;77.98;99611.88;5135543;27;20559;-75
2021/06/11 01:06:07;;;;;;;15.65;14.15;;;;;;;18.57;78.78;99621.47;5135384;27;20432;-75
2021/06/11 01:08:35;;;;;;;15.73;14.32;;;;;;;18.71;78.02;99617.50;5135479;27;20292;-74
2021/06/11 01:11:02;;;;;;;15.10;13.73;;;;;;;18.81;77.68;99622.97;5135628;27;20209;-74
2021/06/11 01:13:29;;;;;;;17.33;15.73;;;;;;;18.61;78.33;99616.59;5135714;27;20185;-75
2021/06/11 01:15:55;;;;;;;15.60;14.00;;;;;;;18.50;79.23;99621.19;5135204;27;20181;-75
2021/06/11 01:18:21;;;;;;;14.23;12.98;;;;;;;18.72;78.09;99614.63;5135107;27;20202;-75
2021/06/11 01:20:48;;;;;;;16.00;14.60;;;;;;;18.57;79.09;99612.44;5135141;27;20238;-75
2021/06/11 01:23:40;;;;;;;16.73;15.15;;;;;;;18.58;78.87;99620.47;5135632;27;20186;-74
2021/06/11 01:26:23;;;;;;;15.90;14.60;;;;;;;18.47;79.44;99626.88;5106409;27;20509;-75
2021/06/11 01:28:51;;;;;;;15.38;13.90;;;;;;;18.40;79.91;99614.81;5134984;27;20213;-75
2021/06/11 01:31:19;;;;;;;15.98;14.57;;;;;;;18.31;80.35;99616.50;5135121;27;20277;-75
2021/06/11 01:33:48;;;;;;;15.18;13.77;;;;;;;18.27;80.89;99612.34;5134882;27;20197;-75
2021/06/11 01:36:20;;;;;;;16.25;14.80;;;;;;;18.26;80.81;99605.16;5135168;27;20589;-75
2021/06/11 01:38:49;;;;;;;16.05;14.65;;;;;;;18.18;81.53;99605.00;5135162;27;20634;-75
2021/06/11 01:41:19;;;;;;;16.50;15.00;;;;;;;18.19;81.16;99608.59;5134954;27;20683;-74
2021/06/11 01:43:48;;;;;;;15.05;13.85;;;;;;;18.09;81.65;99612.16;5134735;27;20319;-74
2021/06/11 01:46:19;;;;;;;16.75;15.35;;;;;;;17.87;83.03;99607.75;5135399;27;20211;-75
2021/06/11 01:48:47;;;;;;;17.38;15.77;;;;;;;17.93;83.24;99619.94;5134589;27;20733;-75
2021/06/11 01:51:15;;;;;;;15.73;14.43;;;;;;;17.97;82.64;99612.38;5134575;27;20280;-75
2021/06/11 01:53:43;;;;;;;17.67;16.08;;;;;;;17.82;83.49;99609.13;5135364;27;20681;-75
2021/06/11 01:56:12;;;;;;;17.48;15.85;;;;;;;17.85;83.67;99614.31;5134699;27;20542;-74
2021/06/11 01:58:39;;;;;;;16.35;14.85;;;;;;;17.81;83.44;99613.72;5134864;27;20188;-74
2021/06/11 02:01:07;;;;;;;17.08;15.57;;;;;;;17.80;83.84;99611.97;5134688;27;20213;-75
2021/06/11 02:03:33;;;;;;;16.70;15.27;;;;;;;17.83;83.45;99616.31;5134194;27;20205;-74
2021/06/11 02:06:00;;;;;;;16.90;15.35;;;;;;;17.82;83.32;99615.47;5134483;27;20181;-74
2021/06/11 02:08:29;;;;;;;18.05;16.17;;;;;;;17.80;83.36;99614.69;5134933;27;20241;-74
2021/06/11 02:10:57;;;;;;;16.55;15.15;;;;;;;17.80;83.35;99613.84;5134442;27;20242;-74
2021/06/11 02:13:23;;;;;;;17.05;15.60;;;;;;;17.75;83.49;99618.81;5134592;27;20195;-74
2021/06/11 02:15:50;;;;;;;16.20;14.80;;;;;;;17.61;84.09;99615.44;5135190;27;20187;-74
2021/06/11 02:18:18;;;;;;;17.60;15.90;;;;;;;17.50;84.93;99610.06;5134502;27;20199;-76
2021/06/11 02:20:45;;;;;;;17.88;16.27;;;;;;;17.49;85.13;99613.78;5134540;27;20273;-74
2021/06/11 02:23:11;;;;;;;17.52;16.10;;;;;;;17.48;84.93;99607.47;5134306;27;20301;-75
2021/06/11 02:25:38;;;;;;;18.75;17.05;;;;;;;17.42;85.43;99607.16;5134243;27;20206;-74
2021/06/11 02:28:06;;;;;;;17.40;15.57;;;;;;;17.24;86.32;99615.88;5134267;27;20196;-75
2021/06/11 02:30:32;;;;;;;17.10;15.60;;;;;;;17.27;86.66;99612.91;5134448;27;20245;-76
2021/06/11 02:32:58;;;;;;;17.90;16.27;;;;;;;17.36;85.78;99611.25;5134802;27;20219;-74
2021/06/11 02:35:26;;;;;;;17.00;15.57;;;;;;;17.48;85.21;99615.66;5134405;27;20243;-74
2021/06/11 02:37:53;;;;;;;17.13;15.73;;;;;;;17.30;86.13;99609.06;5136149;27;20181;-75
2021/06/11 02:40:19;;;;;;;17.92;16.33;;;;;;;17.22;86.75;99614.31;5139017;27;20200;-75
2021/06/11 02:42:49;;;;;;;18.08;16.35;;;;;;;17.25;86.88;99608.59;5138185;27;20230;-74
2021/06/11 02:45:20;;;;;;;18.08;16.48;;;;;;;17.19;87.56;99607.28;5138144;27;20231;-74
2021/06/11 02:47:52;;;;;;;17.77;16.17;;;;;;;17.23;87.40;99607.84;5138409;27;20278;-74
2021/06/11 02:50:22;;;;;;;18.60;16.90;;;;;;;17.10;88.11;99605.34;5138424;27;20711;-76
2021/06/11 02:52:52;;;;;;;17.92;16.33;;;;;;;17.24;87.35;99612.31;5138421;27;20285;-75
2021/06/11 02:55:21;;;;;;;17.77;16.27;;;;;;;17.34;86.21;99609.66;5138262;27;20182;-75
2021/06/11 02:57:51;;;;;;;18.55;16.88;;;;;;;17.17;87.25;99609.25;5137947;27;20273;-74
2021/06/11 03:00:18;;;;;;;17.60;15.95;;;;;;;17.11;87.46;99608.91;5137843;27;20286;-75
2021/06/11 03:02:52;;;;;;;17.73;15.93;;;;;;;17.28;86.76;99611.06;5138808;27;20212;-75
2021/06/11 03:05:20;;;;;;;17.10;15.60;;;;;;;17.29;86.13;99610.91;5137599;27;20264;-75
2021/06/11 03:07:52;;;;;;;17.80;16.20;;;;;;;17.24;86.41;99613.16;5137777;27;20197;-75
2021/06/11 03:10:23;;;;;;;17.73;16.23;;;;;;;17.26;86.52;99619.34;5137984;27;20257;-75
2021/06/11 03:12:50;;;;;;;17.60;16.02;;;;;;;17.24;86.50;99609.59;5138453;27;20274;-74
2021/06/11 03:15:16;;;;;;;17.40;15.80;;;;;;;17.12;86.83;99614.22;5137810;27;20196;-75
2021/06/11 03:17:46;;;;;;;18.45;16.55;;;;;;;16.99;87.50;99613.53;5138034;27;20531;-74
2021/06/11 03:20:15;;;;;;;17.13;15.73;;;;;;;17.04;87.31;99612.16;5137701;27;20177;-75
2021/06/11 03:22:49;;;;;;;17.55;15.93;;;;;;;17.01;87.34;99609.69;5137910;27;20203;-75
2021/06/11 03:25:23;;;;;;;17.45;15.85;;;;;;;17.02;87.36;99618.72;5137803;27;20187;-74
2021/06/11 03:27:53;;;;;;;17.40;15.55;;;;;;;16.89;87.67;99610.72;5138406;27;20201;-74
2021/06/11 03:30:22;;;;;;;16.90;15.50;;;;;;;16.94;87.86;99611.22;5137365;27;20294;-75
2021/06/11 03:32:53;;;;;;;17.70;16.20;;;;;;;17.05;86.92;99613.03;5137828;27;20191;-74
2021/06/11 03:35:22;;;;;;;17.45;15.95;;;;;;;17.17;85.75;99628.31;5137706;27;20216;-75
2021/06/11 03:37:52;;;;;;;17.92;16.40;;;;;;;17.00;86.64;99613.41;5137529;27;20265;-74
2021/06/11 03:40:26;;;;;;;16.92;15.43;;;;;;;16.93;87.08;99614.91;5137256;27;20240;-76
2021/06/11 03:42:54;;;;;;;17.73;15.88;;;;;;;16.87;87.48;99619.03;5137628;27;20634;-75
2021/06/11 03:45:21;;;;;;;17.83;16.33;;;;;;;16.71;88.25;99623.09;5137197;27;20246;-75
2021/06/11 03:47:49;;;;;;;17.40;15.88;;;;;;;16.78;88.05;99629.75;5137413;27;20544;-74
2021/06/11 03:50:20;;;;;;;17.50;16.00;;;;;;;16.89;87.58;99618.88;5136442;27;20683;-74
2021/06/11 03:52:48;;;;;;;17.23;15.60;;;;;;;17.18;86.06;99616.41;5137368;27;20188;-75
2021/06/11 03:55:18;;;;;;;16.38;14.98;;;;;;;17.30;85.05;99630.84;5137201;27;20512;-75
2021/06/11 03:57:51;;;;;;;18.23;16.33;;;;;;;17.38;84.53;99620.16;5137232;27;20200;-75
2021/06/11 04:00:18;;;;;;;17.42;15.82;;;;;;;17.23;84.75;99625.06;5137749;27;20263;-74
2021/06/11 04:02:46;;;;;;;16.77;15.23;;;;;;;17.05;85.42;99623.91;5136989;27;20195;-74
2021/06/11 04:05:13;;;;;;;17.15;15.65;;;;;;;17.04;86.07;99627.63;5136610;27;20239;-74
2021/06/11 04:07:44;;;;;;;17.25;15.65;;;;;;;17.04;86.27;99617.59;5136886;27;20194;-74
2021/06/11 04:10:15;;;;;;;16.95;15.45;;;;;;;17.38;84.11;99624.72;5136617;27;20539;-75
2021/06/11 04:12:45;;;;;;;16.10;14.63;;;;;;;17.46;82.92;99620.34;5136924;27;20192;-75
2021/06/11 04:15:15;;;;;;;16.42;14.93;;;;;;;17.60;82.12;99627.31;5135989;27;20331;-74
2021/06/11 04:17:46;;;;;;;17.88;16.23;;;;;;;17.73;80.28;99629.84;5136889;27;20634;-75
2021/06/11 04:20:15;;;;;;;15.95;14.43;;;;;;;17.91;78.89;99630.13;5136755;27;20583;-74
2021/06/11 04:22:45;;;;;;;16.05;14.63;;;;;;;18.06;77.55;99636.91;5136511;27;20284;-74
2021/06/11 04:25:15;;;;;;;16.17;14.63;;;;;;;17.99;77.53;99641.19;5136263;27;20219;-73
2021/06/11 04:27:44;;;;;;;15.90;14.30;;;;;;;17.87;78.31;99636.84;5136031;27;20213;-74
2021/06/11 04:30:13;;;;;;;16.60;14.93;;;;;;;17.85;78.47;99638.84;5136141;27;20304;-74
2021/06/11 04:32:41;;;;;;;14.82;13.05;;;;;;;17.83;78.22;99643.53;5136284;27;20655;-74
2021/06/11 04:35:08;;;;;;;14.25;13.10;;;;;;;17.78;78.27;99643.06;5135947;27;20199;-75
2021/06/11 04:37:36;;;;;;;15.10;13.80;;;;;;;17.83;77.77;99641.69;5135958;27;20211;-74
2021/06/11 04:40:02;;;;;;;15.38;14.07;;;;;;;17.95;77.80;99638.88;5134621;27;20552;-74
2021/06/11 04:42:29;;;;;;;17.17;15.48;;;;;;;18.10;76.86;99643.84;5135717;27;20181;-73
2021/06/11 04:44:55;;;;;;;15.40;14.00;;;;;;;18.02;76.59;99646.38;5136009;27;20196;-74
2021/06/11 04:47:22;;;;;;;15.05;13.60;;;;;;;18.01;76.51;99649.25;5135637;27;20283;-75
2021/06/11 04:49:48;;;;;;;15.10;13.80;;;;;;;17.86;77.24;99654.16;5135954;27;20217;-73
2021/06/11 04:52:15;;;;;;;15.38;13.90;;;;;;;17.92;77.04;99648.19;5135270;27;20203;-73
2021/06/11 04:54:41;;;;;;;14.55;13.35;;;;;;;18.36;75.16;99646.09;5135761;27;20283;-74
2021/06/11 04:57:08;;;;;;;15.38;14.07;;;;;;;18.58;74.04;99658.63;5136211;27;20185;-74
2021/06/11 04:59:34;;;;;;;15.30;13.95;;;;;;;18.61;73.79;99652.94;5135831;27;20502;-73
2021/06/11 05:02:00;;;;;;;16.30;14.68;;;;;;;18.70;73.70;99662.13;5135245;27;20190;-74
2021/06/11 05:04:27;;;;;;;16.02;14.63;;;;;;;18.82;73.14;99660.19;5135363;27;20237;-75
2021/06/11 05:06:53;;;;;;;15.65;14.15;;;;;;;18.94;71.99;99661.78;5135842;27;20189;-74
2021/06/11 05:09:21;;;;;;;15.48;13.98;;;;;;;19.02;71.56;99663.81;5135222;27;20212;-74
2021/06/11 05:11:47;;;;;;;14.68;13.40;;;;;;;18.99;71.56;99662.19;5135604;27;20219;-73
2021/06/11 05:14:13;;;;;;;16.02;14.50;;;;;;;18.95;71.61;99661.63;5135083;27;20585;-74
2021/06/11 05:16:40;;;;;;;14.13;13.02;;;;;;;19.12;70.99;99667.41;5135500;27;20236;-73
2021/06/11 05:19:06;;;;;;;15.35;13.95;;;;;;;19.16;70.86;99666.13;5135306;27;20221;-75
2021/06/11 05:21:33;;;;;;;16.85;14.65;;;;;;;19.20;70.68;99663.94;5135250;27;20211;-73
2021/06/11 05:23:59;;;;;;;17.63;15.93;;;;;;;19.35;69.94;99665.25;5135424;27;20185;-73
2021/06/11 05:26:25;;;;;;;15.45;13.98;;;;;;;19.29;70.05;99660.38;5135076;27;20292;-74
2021/06/11 05:28:51;;;;;;;16.50;14.90;;;;;;;19.49;69.98;99659.38;5134248;27;20221;-74
2021/06/11 05:31:18;;;;;;;15.75;14.45;;;;;;;19.54;69.38;99661.66;5134630;27;20276;-74
2021/06/11 05:33:44;;;;;;;16.23;14.73;;;;;;;19.58;68.88;99654.88;5136234;27;20189;-76
2021/06/11 05:36:10;;;;;;;16.08;14.63;;;;;;;19.59;68.91;99654.75;5142582;27;20197;-75
2021/06/11 05:38:38;;;;;;;16.13;14.52;;;;;;;19.58;69.50;99652.16;5134722;27;20310;-74
2021/06/11 05:41:04;;;;;;;15.77;14.43;;;;;;;19.97;68.26;99665.78;5124376;27;20270;-74
2021/06/11 05:43:31;;;;;;;15.47;14.10;;;;;;;19.89;67.80;99657.47;5114047;28;20562;-74
2021/06/11 05:45:59;;;;;;;17.63;14.77;;;;;;;20.21;67.24;99662.53;5151183;27;20484;-73
2021/06/11 05:48:25;;;;;;;16.23;14.73;;;;;;;20.22;66.65;99656.06;5155518;27;20471;-74
2021/06/11 05:50:51;;;;;;;21.10;19.10;;;;;;;20.41;66.36;99664.16;5146740;27;20995;-74
2021/06/11 05:53:22;;;;;;;16.17;14.60;;;;;;;20.27;66.65;99661.94;5134296;27;20515;-74
2021/06/11 05:55:50;;;;;;;17.40;15.67;;;;;;;20.40;66.44;99659.72;5134470;27;20431;-74
2021/06/11 05:58:16;;;;;;;17.13;15.50;;;;;;;20.59;65.68;99664.25;5134544;27;20909;-74
2021/06/11 06:00:42;;;;;;;17.37;15.50;;;;;;;20.81;64.54;99668.47;5134388;27;20478;-74
2021/06/11 06:03:08;;;;;;;16.83;15.23;;;;;;;20.95;64.11;99669.81;5134162;27;20452;-73
2021/06/11 06:05:34;;;;;;;16.60;14.80;;;;;;;20.97;64.34;99667.78;5133990;27;20480;-73
2021/06/11 06:08:01;;;;;;;21.00;16.47;;;;;;;20.93;65.07;99660.03;5134392;27;20927;-74
2021/06/11 06:10:27;;;;;;;19.13;15.77;;;;;;;21.23;63.92;99656.06;5133810;27;20474;-74
2021/06/11 06:12:54;;;;;;;16.53;14.93;;;;;;;21.45;63.11;99661.09;5134066;27;20478;-73
2021/06/11 06:15:20;;;;;;;38.07;16.20;;;;;;;21.65;62.81;99659.06;5134181;27;20412;-74
2021/06/11 06:17:46;;;;;;;24.60;16.17;;;;;;;21.65;62.01;99660.94;5134684;27;20515;-74
2021/06/11 06:20:14;;;;;;;18.93;15.57;;;;;;;21.83;61.36;99659.00;5133643;27;20432;-74
2021/06/11 06:22:40;;;;;;;29.60;16.90;;;;;;;21.95;60.73;99666.97;5133850;28;20425;-75
2021/06/11 06:25:08;;;;;;;17.07;14.40;;;;;;;22.06;59.66;99663.97;5133509;28;20436;-75
2021/06/11 06:27:35;;;;;;;20.73;15.67;;;;;;;22.21;59.53;99664.25;5133613;28;20462;-76
2021/06/11 06:30:04;;;;;;;18.57;16.70;;;;;;;22.37;59.60;99664.34;5133826;27;20551;-75
2021/06/11 06:32:30;;;;;;;22.13;15.60;;;;;;;22.40;59.05;99669.50;5133806;27;20616;-74
2021/06/11 06:34:58;;;;;;;17.43;14.50;;;;;;;22.54;58.67;99669.91;5133566;27;20952;-74
2021/06/11 06:37:24;;;;;;;23.00;20.63;;;;;;;22.60;58.79;99669.25;5133828;28;20501;-74
2021/06/11 06:39:51;;;;;;;17.10;15.50;;;;;;;22.35;59.68;99668.28;5133846;28;20447;-73
2021/06/11 06:42:18;;;;;;;19.03;15.37;;;;;;;22.56;58.39;99667.88;5133870;28;20436;-74
2021/06/11 06:44:44;;;;;;;15.80;14.33;;;;;;;22.72;57.86;99673.41;5134805;27;20842;-74
2021/06/11 06:47:15;;;;;;;17.10;15.30;;;;;;;22.56;58.58;99665.13;5133493;27;20531;-74
2021/06/11 06:49:41;;;;;;;18.10;14.87;;;;;;;22.94;56.22;99660.13;5133826;27;20982;-74
2021/06/11 06:52:08;;;;;;;18.77;16.83;;;;;;;23.20;55.88;99671.00;5134310;27;20878;-76
2021/06/11 06:54:34;;;;;;;17.17;15.53;;;;;;;23.42;54.72;99662.13;5134217;27;20434;-75
2021/06/11 06:57:04;;;;;;;16.87;15.37;;;;;;;23.57;54.42;99659.56;5133882;27;20525;-74
2021/06/11 06:59:30;;;;;;;18.47;15.67;;;;;;;23.83;53.50;99662.13;5133378;27;20467;-75
2021/06/11 07:01:59;;;;;;;16.90;13.87;;;;;;;23.86;53.12;99669.22;5133671;27;20530;-74
2021/06/11 07:04:27;;;;;;;15.27;12.77;;;;;;;24.09;52.50;99661.94;5133575;27;20562;-74
2021/06/11 07:06:53;;;;;;;14.90;13.13;;;;;;;24.02;52.04;99666.44;5134479;27;20511;-74
2021/06/11 07:09:23;;;;;;;17.43;15.73;;;;;;;24.15;51.58;99660.41;5134065;27;20483;-74
2021/06/11 07:11:49;;;;;;;15.13;13.60;;;;;;;24.47;50.58;99664.97;5133873;27;20762;-73
2021/06/11 07:14:16;;;;;;;13.43;12.03;;;;;;;24.51;50.46;99657.19;5133653;27;20745;-75
2021/06/11 07:16:42;;;;;;;14.87;13.37;;;;;;;24.55;50.34;99664.06;5133502;27;20440;-75
2021/06/11 07:19:08;;;;;;;15.57;14.03;;;;;;;24.63;49.68;99657.69;5133473;27;20835;-75
2021/06/11 07:21:36;;;;;;;13.83;12.20;;;;;;;24.69;49.34;99654.19;5133138;27;20519;-75
2021/06/11 07:24:03;;;;;;;13.30;12.07;;;;;;;25.03;48.69;99659.34;5133398;27;20476;-73
2021/06/11 07:26:29;;;;;;;13.30;12.10;;;;;;;25.12;48.14;99661.03;5137351;27;20849;-74
2021/06/11 07:28:55;;;;;;;12.90;11.33;;;;;;;25.07;47.92;99655.19;5137021;27;20519;-74
2021/06/11 07:31:21;;;;;;;13.87;12.33;;;;;;;25.12;48.12;99652.78;5137259;27;20446;-74
2021/06/11 07:33:50;;;;;;;13.83;12.60;;;;;;;24.79;49.18;99654.00;5137125;27;20421;-74
2021/06/11 07:36:16;;;;;;;11.97;10.97;;;;;;;24.65;50.22;99652.84;5136945;27;20444;-75
2021/06/11 07:38:47;;;;;;;14.40;10.53;;;;;;;24.98;49.46;99659.91;5137161;27;20534;-75
2021/06/11 07:41:13;;;;;;;11.67;10.23;;;;;;;25.39;48.38;99661.56;5136771;27;20435;-75
2021/06/11 07:43:39;;;;;;;11.60;10.40;;;;;;;25.67;47.68;99656.34;5137050;27;20592;-75
2021/06/11 07:46:05;;;;;;;11.43;10.30;;;;;;;25.74;46.97;99657.31;5137196;27;20424;-75
2021/06/11 07:48:31;;;;;;;9.97;8.97;;;;;;;25.85;46.83;99660.69;5136578;27;20985;-74
2021/06/11 07:50:58;;;;;;;9.63;8.63;;;;;;;25.83;46.78;99655.34;5132985;27;20961;-74
2021/06/11 07:53:24;;;;;;;11.40;10.20;;;;;;;26.09;46.39;99652.19;5136677;27;20440;-74
2021/06/11 07:55:51;;;;;;;10.47;9.37;;;;;;;25.98;46.37;99649.88;5137127;27;20435;-73
2021/06/11 07:58:18;;;;;;;8.00;7.23;;;;;;;25.94;46.22;99657.69;5136948;27;20964;-73
2021/06/11 08:00:45;;;;;;;10.57;9.30;;;;;;;26.15;45.99;99650.59;5136523;27;20439;-74
2021/06/11 08:03:11;;;;;;;9.60;8.63;;;;;;;26.28;45.58;99655.47;5125312;27;20431;-74
2021/06/11 08:05:39;;;;;;;8.83;8.13;;;;;;;26.48;44.62;99653.84;5136533;27;20495;-75
2021/06/11 08:08:05;;;;;;;13.73;8.03;;;;;;;26.71;43.89;99655.66;5136347;27;20442;-75
2021/06/11 08:10:32;;;;;;;9.03;8.23;;;;;;;26.89;43.78;99647.81;5136586;27;20464;-74
2021/06/11 08:12:59;;;;;;;9.80;7.80;;;;;;;26.91;43.91;99655.88;5136068;27;20440;-73
2021/06/11 08:15:25;;;;;;;9.20;8.30;;;;;;;26.76;44.10;99653.19;5136745;27;20432;-74
2021/06/11 08:17:52;;;;;;;8.57;7.87;;;;;;;26.90;43.66;99654.19;5127097;27;20432;-74
2021/06/11 08:20:18;;;;;;;8.63;7.87;;;;;;;27.07;43.34;99652.03;5137289;27;20441;-74
2021/06/11 08:22:44;;;;;;;12.40;8.00;;;;;;;27.17;43.52;99650.69;5136682;27;20458;-75
2021/06/11 08:25:12;;;;;;;8.53;7.70;;;;;;;27.28;43.27;99648.50;5134892;27;20477;-74
2021/06/11 08:27:38;;;;;;;8.63;7.60;;;;;;;27.32;43.17;99641.53;5135709;27;20447;-75
2021/06/11 08:30:09;;;;;;;7.67;6.90;;;;;;;27.29;42.88;99652.97;5135816;27;20543;-74
2021/06/11 08:32:35;;;;;;;8.90;8.07;;;;;;;27.43;42.76;99646.53;5136313;27;20444;-74
2021/06/11 08:35:01;;;;;;;8.97;8.23;;;;;;;27.56;42.44;99649.41;5135782;27;20946;-75
2021/06/11 08:37:30;;;;;;;9.03;8.13;;;;;;;27.72;41.75;99650.19;5135743;27;20424;-74
2021/06/11 08:39:57;;;;;;;8.70;7.90;;;;;;;27.76;41.79;99657.03;5135421;27;20518;-74
2021/06/11 08:42:29;;;;;;;7.80;7.00;;;;;;;27.63;41.73;99653.13;5135654;27;20973;-74
2021/06/11 08:44:58;;;;;;;8.03;7.33;;;;;;;27.71;41.36;99657.63;5136048;27;20451;-75
2021/06/11 08:47:29;;;;;;;8.20;7.50;;;;;;;27.94;41.55;99648.28;5135657;27;20484;-75
2021/06/11 08:49:59;;;;;;;8.20;7.50;;;;;;;27.73;41.63;99650.00;5135627;27;20949;-73
2021/06/11 08:52:27;;;;;;;7.83;6.90;;;;;;;28.04;40.84;99652.41;5136516;27;20908;-73
2021/06/11 08:54:54;;;;;;;7.80;6.77;;;;;;;28.06;40.39;99650.31;5134640;27;20452;-74
2021/06/11 08:57:22;;;;;;;8.57;7.77;;;;;;;28.26;39.82;99641.25;5135308;27;20956;-76
2021/06/11 08:59:49;;;;;;;7.10;6.40;;;;;;;28.25;39.58;99647.88;5135322;27;20521;-74
2021/06/11 09:02:15;;;;;;;9.20;7.37;;;;;;;28.30;39.52;99653.66;5134847;27;20804;-74
2021/06/11 09:04:46;;;;;;;6.57;5.93;;;;;;;28.18;39.12;99646.97;5135207;27;20827;-75
2021/06/11 09:07:23;;;;;;;7.20;6.60;;;;;;;28.45;39.33;99654.38;5135436;27;20476;-75
2021/06/11 09:09:49;;;;;;;5.70;5.20;;;;;;;28.32;38.99;99646.00;5135032;27;20455;-75
2021/06/11 09:12:36;;;;;;;6.00;5.50;;;;;;;27.97;39.29;99639.56;5135768;27;20878;-75
2021/06/11 09:15:07;;;;;;;8.17;6.10;;;;;;;27.24;40.81;99643.34;5135335;27;20966;-73
2021/06/11 09:17:39;;;;;;;5.87;5.37;;;;;;;27.68;39.83;99652.50;5134504;27;20503;-74
2021/06/11 09:20:13;;;;;;;12.53;7.30;;;;;;;28.11;39.25;99640.50;5135580;27;20561;-74
2021/06/11 09:22:48;;;;;;;8.03;6.60;;;;;;;28.31;38.66;99644.28;5135543;27;20456;-74
2021/06/11 09:25:29;;;;;;;5.83;5.33;;;;;;;28.27;38.46;99646.63;5134651;27;20486;-74
2021/06/11 09:27:57;;;;;;;6.30;5.47;;;;;;;28.47;37.35;99644.00;5134943;27;20976;-74
2021/06/11 09:30:33;;;;;;;6.97;6.37;;;;;;;28.66;37.10;99649.84;5134576;27;20547;-74
2021/06/11 09:33:01;;;;;;;7.63;5.80;;;;;;;28.55;36.75;99642.97;5134814;27;20506;-75
2021/06/11 09:35:35;;;;;;;6.70;6.13;;;;;;;28.61;37.39;99647.69;5135145;27;20510;-74
2021/06/11 09:38:11;;;;;;;10.40;8.60;;;;;;;28.72;37.71;99645.38;5134893;27;20455;-74
2021/06/11 09:40:38;;;;;;;8.60;6.50;;;;;;;28.40;38.23;99645.84;5135249;27;20416;-74
2021/06/11 09:43:05;;;;;;;7.90;6.43;;;;;;;28.38;38.23;99649.84;5135561;27;20896;-75
2021/06/11 09:45:31;;;;;;;7.40;6.80;;;;;;;28.03;38.78;99639.63;5134703;27;20451;-74
2021/06/11 09:47:58;;;;;;;14.20;13.20;;;;;;;28.23;38.21;99642.53;5134730;27;20431;-75
2021/06/11 09:50:28;;;;;;;6.73;6.17;;;;;;;28.38;38.23;99647.09;5134232;27;20468;-73
2021/06/11 09:53:00;;;;;;;5.50;5.00;;;;;;;28.87;37.47;99646.09;5134326;27;20432;-73
2021/06/11 09:55:29;;;;;;;6.43;5.87;;;;;;;29.00;37.38;99642.53;5135016;27;20535;-74
2021/06/11 09:58:17;;;;;;;5.40;5.00;;;;;;;29.24;37.04;99649.44;5134396;27;20431;-73
2021/06/11 10:00:54;;;;;;;8.67;6.60;;;;;;;29.18;36.12;99647.53;5133657;27;20428;-74
2021/06/11 10:03:24;;;;;;;7.60;7.10;;;;;;;28.73;37.04;99642.41;5123590;27;20416;-74
2021/06/11 10:05:51;;;;;;;7.13;6.53;;;;;;;28.52;37.56;99637.00;5134149;27;20471;-75
2021/06/11 10:08:35;;;;;;;7.20;6.60;;;;;;;29.01;36.49;99641.44;5099932;27;20440;-75
2021/06/11 10:11:03;;;;;;;7.80;7.00;;;;;;;29.22;35.91;99644.13;5133870;27;20475;-74
2021/06/11 10:13:30;;;;;;;7.20;6.70;;;;;;;29.20;35.57;99635.16;5133992;27;20432;-74
2021/06/11 10:15:59;;;;;;;7.33;6.80;;;;;;;28.18;37.49;99624.84;5134506;27;20416;-75
2021/06/11 10:18:25;;;;;;;7.93;7.23;;;;;;;28.31;37.36;99635.97;5134529;27;20421;-74
2021/06/11 10:20:52;;;;;;;10.00;7.07;;;;;;;28.46;37.35;99639.47;5134300;27;20902;-75
2021/06/11 10:23:20;;;;;;;6.80;6.30;;;;;;;28.73;36.90;99636.88;5134011;28;20432;-75
2021/06/11 10:25:51;;;;;;;7.57;6.97;;;;;;;28.90;36.50;99641.00;5133857;28;20490;-75
2021/06/11 10:28:19;;;;;;;6.40;5.90;;;;;;;29.19;36.17;99635.34;5134107;27;20428;-76
2021/06/11 10:30:48;;;;;;;7.23;6.20;;;;;;;29.13;35.83;99634.28;5134327;27;20494;-74
2021/06/11 10:33:14;;;;;;;7.90;7.20;;;;;;;29.07;36.23;99637.84;5134181;28;20947;-74
2021/06/11 10:35:44;;;;;;;7.43;6.80;;;;;;;29.09;35.85;99624.66;5133772;28;20427;-75
2021/06/11 10:38:28;;;;;;;6.30;5.80;;;;;;;28.62;36.66;99626.38;5134003;28;20444;-74
2021/06/11 10:40:57;;;;;;;8.03;7.23;;;;;;;29.24;35.98;99633.69;5110950;28;20796;-76
2021/06/11 10:43:27;;;;;;;6.87;6.37;;;;;;;29.41;35.58;99638.81;5113230;28;20510;-75
2021/06/11 10:45:55;;;;;;;7.53;7.03;;;;;;;29.41;35.79;99636.03;5113420;28;20433;-74
2021/06/11 10:48:23;;;;;;;6.33;5.93;;;;;;;29.42;35.97;99632.19;5123126;28;20451;-75
2021/06/11 10:50:50;;;;;;;7.40;6.27;;;;;;;29.59;35.66;99629.88;5133973;27;20829;-75
2021/06/11 10:53:30;;;;;;;7.03;6.43;;;;;;;29.29;36.37;99630.28;5134100;27;20881;-74
2021/06/11 10:56:15;;;;;;;6.93;6.33;;;;;;;29.14;36.93;99633.22;5113723;28;20432;-75
2021/06/11 10:58:44;;;;;;;6.53;5.90;;;;;;;28.99;36.95;99626.94;5126898;27;20475;-74
2021/06/11 11:01:30;;;;;;;7.53;6.80;;;;;;;29.38;35.80;99626.22;5138282;27;20489;-74
2021/06/11 11:04:18;;;;;;;10.20;6.90;;;;;;;29.84;35.26;99619.03;5137427;27;20989;-74
2021/06/11 11:06:44;;;;;;;6.97;6.40;;;;;;;29.82;35.81;99616.44;5137381;27;20440;-75
2021/06/11 11:09:12;;;;;;;7.43;6.03;;;;;;;29.53;35.78;99623.25;5137413;27;20512;-75
2021/06/11 11:11:46;;;;;;;7.03;6.20;;;;;;;29.40;35.69;99631.56;5137706;27;20440;-74
2021/06/11 11:14:39;;;;;;;5.63;5.13;;;;;;;29.54;34.69;99622.19;5137916;27;20952;-73
2021/06/11 11:17:05;;;;;;;6.17;5.57;;;;;;;29.41;34.13;99622.19;5137371;27;20425;-74
2021/06/11 11:19:50;;;;;;;7.97;7.37;;;;;;;29.51;34.50;99614.31;5137648;27;20847;-74
2021/06/11 11:22:35;;;;;;;6.03;5.63;;;;;;;29.69;33.74;99605.34;5137199;27;20516;-74
2021/06/11 11:25:12;;;;;;;7.20;6.60;;;;;;;29.81;34.56;99613.91;5136440;27;20524;-74
2021/06/11 11:27:40;;;;;;;6.20;5.73;;;;;;;29.86;34.68;99605.78;5137103;27;20519;-75